Time;durP1;ratioP1;P1;durP2;ratioP2;P2;SDS_P1;SDS_P2;PMS_P1;PMS_P2;Temp;Humidity;BMP_temperature;BMP_pressure;BME280_temperature;BME280_humidity;BME280_pressure;Samples;Min_cycle;Max_cycle;Signal;HPM_P1;HPM_P2
2021/03/21 00:01:40;;;;;;;1.02;0.77;;;14.90;54.20;;;;;;5060092;28;20025;-37
2021/03/21 00:04:06;;;;;;;1.25;0.80;;;14.90;54.20;;;;;;5046275;28;20025;-38
2021/03/21 00:06:32;;;;;;;0.93;0.70;;;14.80;54.10;;;;;;5050121;28;20029;-38
2021/03/21 00:08:59;;;;;;;1.02;0.80;;;14.80;54.20;;;;;;5048686;28;20021;-38
2021/03/21 00:11:25;;;;;;;1.00;0.88;;;14.80;54.10;;;;;;5066455;28;20393;-37
2021/03/21 00:13:51;;;;;;;1.13;0.80;;;14.80;54.10;;;;;;5048081;28;20551;-37
2021/03/21 00:16:17;;;;;;;1.23;0.70;;;14.80;54.10;;;;;;5066408;28;20028;-37
2021/03/21 00:18:43;;;;;;;1.15;0.80;;;14.80;53.80;;;;;;5066328;28;20060;-38
2021/03/21 00:21:11;;;;;;;2.28;1.00;;;14.70;53.80;;;;;;5066076;28;20029;-38
2021/03/21 00:23:38;;;;;;;0.95;0.85;;;14.80;53.90;;;;;;5066086;28;20025;-37
2021/03/21 00:26:05;;;;;;;0.95;0.80;;;14.70;53.80;;;;;;5065706;28;20029;-38
2021/03/21 00:28:32;;;;;;;1.40;0.80;;;14.70;53.70;;;;;;5048558;28;20482;-38
2021/03/21 00:30:59;;;;;;;1.23;0.90;;;14.70;53.70;;;;;;5047289;28;20029;-38
2021/03/21 00:33:27;;;;;;;0.98;0.68;;;14.70;53.70;;;;;;5045383;28;20022;-38
2021/03/21 00:35:53;;;;;;;0.95;0.80;;;14.70;53.40;;;;;;5035167;28;20014;-38
2021/03/21 00:38:27;;;;;;;1.00;0.73;;;14.70;53.40;;;;;;5028378;28;20081;-38
2021/03/21 00:40:53;;;;;;;1.00;0.80;;;14.70;53.40;;;;;;5045835;28;20029;-38
2021/03/21 00:43:19;;;;;;;1.63;0.90;;;14.60;53.40;;;;;;5064311;28;20025;-38
2021/03/21 00:45:45;;;;;;;0.75;0.68;;;14.60;53.40;;;;;;5050238;28;20032;-38
2021/03/21 00:48:23;;;;;;;0.93;0.80;;;14.60;53.40;;;;;;5046089;28;20065;-38
2021/03/21 00:50:50;;;;;;;1.08;0.80;;;14.60;53.40;;;;;;5045386;28;20076;-38
2021/03/21 00:53:16;;;;;;;0.85;0.77;;;14.60;53.40;;;;;;5027780;28;20025;-38
2021/03/21 00:55:42;;;;;;;0.70;0.60;;;14.60;53.50;;;;;;5045305;28;20025;-38
2021/03/21 00:58:08;;;;;;;1.00;0.90;;;14.60;53.50;;;;;;5027985;28;20059;-38
2021/03/21 01:00:42;;;;;;;0.90;0.80;;;14.60;53.50;;;;;;5045872;28;20108;-38
2021/03/21 01:03:09;;;;;;;1.20;0.80;;;14.50;53.60;;;;;;5027106;28;20058;-38
2021/03/21 01:05:59;;;;;;;1.20;0.70;;;14.50;53.60;;;;;;5025065;28;20041;-38
2021/03/21 01:08:32;;;;;;;1.15;0.80;;;14.50;53.60;;;;;;5065050;28;20048;-38
2021/03/21 01:11:00;;;;;;;1.35;0.90;;;14.50;53.60;;;;;;5065358;28;20127;-37
2021/03/21 01:13:26;;;;;;;1.15;0.90;;;14.50;53.80;;;;;;5081758;28;20131;-38
2021/03/21 01:15:53;;;;;;;1.70;0.80;;;14.40;53.90;;;;;;5065659;28;20025;-39
2021/03/21 01:18:21;;;;;;;1.25;0.75;;;14.50;53.90;;;;;;5065343;28;20020;-38
2021/03/21 01:20:47;;;;;;;1.20;0.85;;;14.40;53.90;;;;;;5064816;28;20029;-38
2021/03/21 01:23:13;;;;;;;0.80;0.80;;;14.40;53.90;;;;;;5064988;28;20025;-38
2021/03/21 01:25:40;;;;;;;1.10;0.75;;;14.40;53.80;;;;;;5065053;28;20075;-38
2021/03/21 01:28:18;;;;;;;1.13;0.85;;;14.40;54.00;;;;;;5084935;28;20040;-38
2021/03/21 01:30:45;;;;;;;0.90;0.70;;;14.40;54.10;;;;;;5085055;28;20036;-38
2021/03/21 01:33:11;;;;;;;1.10;0.90;;;14.30;53.90;;;;;;5065902;28;20032;-38
2021/03/21 01:35:37;;;;;;;0.80;0.70;;;14.40;54.00;;;;;;5052667;28;20025;-38
2021/03/21 01:38:04;;;;;;;1.27;0.90;;;14.30;54.10;;;;;;5064994;28;20613;-38
2021/03/21 01:40:30;;;;;;;0.95;0.80;;;14.30;54.20;;;;;;5064673;28;20036;-38
2021/03/21 01:42:56;;;;;;;1.52;1.00;;;14.30;53.90;;;;;;5064667;28;20029;-38
2021/03/21 01:45:34;;;;;;;1.00;0.90;;;14.30;53.90;;;;;;5066935;28;20027;-38
2021/03/21 01:48:21;;;;;;;0.80;0.70;;;14.30;54.20;;;;;;5064558;28;20063;-38
2021/03/21 01:50:57;;;;;;;1.27;1.00;;;14.30;54.10;;;;;;5064365;28;20036;-38
2021/03/21 01:53:25;;;;;;;0.80;0.70;;;14.20;54.20;;;;;;5064364;28;20120;-37
2021/03/21 01:55:52;;;;;;;0.88;0.82;;;14.20;54.20;;;;;;5064183;28;20024;-38
2021/03/21 01:58:18;;;;;;;1.10;0.82;;;14.20;54.30;;;;;;5064355;28;20033;-38
2021/03/21 02:00:45;;;;;;;1.10;0.88;;;14.20;54.80;;;;;;5030141;28;20036;-38
2021/03/21 02:03:11;;;;;;;0.80;0.70;;;14.20;54.50;;;;;;5045296;28;20033;-38
2021/03/21 02:05:37;;;;;;;1.83;1.20;;;14.20;54.30;;;;;;5026232;28;20026;-38
2021/03/21 02:08:29;;;;;;;1.67;0.75;;;14.20;54.50;;;;;;5010106;28;20033;-38
2021/03/21 02:11:01;;;;;;;0.95;0.85;;;14.10;54.30;;;;;;5044061;28;20021;-38
2021/03/21 02:13:52;;;;;;;0.88;0.65;;;14.10;54.40;;;;;;5044037;28;20052;-38
2021/03/21 02:16:24;;;;;;;1.13;0.90;;;14.10;54.50;;;;;;5023697;28;20041;-39
2021/03/21 02:19:17;;;;;;;1.08;0.80;;;14.10;54.60;;;;;;5039890;28;20052;-38
2021/03/21 02:21:54;;;;;;;0.88;0.70;;;14.10;54.70;;;;;;5032644;28;20099;-38
2021/03/21 02:24:51;;;;;;;1.58;0.90;;;14.10;54.60;;;;;;5050653;28;20088;-38
2021/03/21 02:27:37;;;;;;;1.08;0.98;;;14.00;54.60;;;;;;5037788;28;20045;-38
2021/03/21 02:30:10;;;;;;;0.90;0.63;;;14.00;54.80;;;;;;5047009;28;20086;-38
2021/03/21 02:32:47;;;;;;;0.77;0.60;;;14.00;54.80;;;;;;5031811;28;20056;-38
2021/03/21 02:35:27;;;;;;;0.90;0.80;;;14.00;54.80;;;;;;5046559;28;20040;-38
2021/03/21 02:38:12;;;;;;;1.30;0.98;;;14.00;54.80;;;;;;5045796;28;20036;-38
2021/03/21 02:40:50;;;;;;;1.23;0.88;;;14.00;55.00;;;;;;5026036;28;20471;-38
2021/03/21 02:43:34;;;;;;;1.67;1.20;;;13.90;54.90;;;;;;5027387;28;20061;-38
2021/03/21 02:46:20;;;;;;;1.48;0.63;;;13.90;54.90;;;;;;5043129;28;20055;-38
2021/03/21 02:48:50;;;;;;;1.20;0.80;;;13.90;55.00;;;;;;5031596;28;20040;-38
2021/03/21 02:51:23;;;;;;;1.08;0.90;;;13.90;55.00;;;;;;5045671;28;20021;-38
2021/03/21 02:53:56;;;;;;;1.25;0.80;;;13.90;55.00;;;;;;5063314;28;20029;-38
2021/03/21 02:56:24;;;;;;;0.93;0.88;;;13.90;55.20;;;;;;5029411;28;20041;-38
2021/03/21 02:59:15;;;;;;;1.10;0.95;;;13.80;55.10;;;;;;5029139;28;20017;-38
2021/03/21 03:02:01;;;;;;;1.63;0.90;;;13.80;55.20;;;;;;5045955;28;20068;-38
2021/03/21 03:04:35;;;;;;;1.20;0.85;;;13.80;55.20;;;;;;5029255;28;20032;-38
2021/03/21 03:07:26;;;;;;;1.30;1.17;;;13.80;55.10;;;;;;5045588;28;20100;-38
2021/03/21 03:10:11;;;;;;;1.08;0.95;;;13.80;55.10;;;;;;5040609;28;20025;-38
2021/03/21 03:12:40;;;;;;;1.25;0.93;;;13.80;55.40;;;;;;5046076;28;20045;-38
2021/03/21 03:15:14;;;;;;;1.02;0.80;;;13.80;55.30;;;;;;5025204;28;20029;-38
2021/03/21 03:17:41;;;;;;;2.20;1.08;;;13.70;55.30;;;;;;5041669;28;20026;-38
2021/03/21 03:20:14;;;;;;;1.55;1.08;;;13.70;55.30;;;;;;5043038;28;20037;-38
2021/03/21 03:22:54;;;;;;;1.20;0.88;;;13.70;55.30;;;;;;5025560;28;20029;-38
2021/03/21 03:25:34;;;;;;;1.77;0.95;;;13.70;55.40;;;;;;5024784;28;20036;-38
2021/03/21 03:28:14;;;;;;;1.38;0.85;;;13.70;55.50;;;;;;5044105;28;20068;-38
2021/03/21 03:30:50;;;;;;;1.35;1.10;;;13.70;55.40;;;;;;5028853;28;20051;-38
2021/03/21 03:33:17;;;;;;;1.10;0.90;;;13.70;55.30;;;;;;5042827;28;20076;-38
2021/03/21 03:35:43;;;;;;;2.22;1.00;;;13.70;55.50;;;;;;5042439;28;20569;-38
2021/03/21 03:38:09;;;;;;;2.03;1.20;;;13.60;55.60;;;;;;5045651;28;20035;-38
2021/03/21 03:40:37;;;;;;;1.33;0.90;;;13.60;55.60;;;;;;5048795;28;20025;-38
2021/03/21 03:43:18;;;;;;;1.77;1.05;;;13.60;55.60;;;;;;5062645;28;20037;-38
2021/03/21 03:46:17;;;;;;;2.28;1.20;;;13.60;55.60;;;;;;5059434;28;20027;-38
2021/03/21 03:48:46;;;;;;;1.27;1.05;;;13.60;55.60;;;;;;5061249;28;20097;-38
2021/03/21 03:51:33;;;;;;;1.02;0.90;;;13.60;55.80;;;;;;5062107;28;20033;-38
2021/03/21 03:54:31;;;;;;;1.05;0.90;;;13.50;55.80;;;;;;5061528;28;20021;-38
2021/03/21 03:57:17;;;;;;;1.40;1.30;;;13.50;55.80;;;;;;5053649;28;20021;-38
2021/03/21 03:59:48;;;;;;;1.35;1.20;;;13.50;55.80;;;;;;5062477;28;20048;-38
2021/03/21 04:02:21;;;;;;;1.40;1.10;;;13.50;56.10;;;;;;5033259;28;20052;-38
2021/03/21 04:04:58;;;;;;;1.20;1.10;;;13.50;55.90;;;;;;5008992;28;20029;-38
2021/03/21 04:08:04;;;;;;;1.95;1.10;;;13.40;56.00;;;;;;5009324;28;20057;-38
2021/03/21 04:10:42;;;;;;;1.30;0.90;;;13.40;56.00;;;;;;4969700;28;20070;-37
2021/03/21 04:13:18;;;;;;;1.35;1.00;;;13.40;56.00;;;;;;4965047;28;20118;-37
2021/03/21 04:15:47;;;;;;;1.85;1.20;;;13.40;56.30;;;;;;4998431;28;20035;-37
2021/03/21 04:18:15;;;;;;;1.20;1.10;;;13.40;56.30;;;;;;5003888;28;20030;-37
2021/03/21 04:20:46;;;;;;;1.35;1.02;;;13.40;56.10;;;;;;5003551;28;20018;-37
2021/03/21 04:23:46;;;;;;;1.52;0.98;;;13.40;56.30;;;;;;4999925;28;20041;-37
2021/03/21 04:26:15;;;;;;;1.30;1.20;;;13.30;56.30;;;;;;4972748;28;20038;-37
2021/03/21 04:28:43;;;;;;;1.25;0.98;;;13.30;56.20;;;;;;4968373;28;20042;-37
2021/03/21 04:31:13;;;;;;;1.95;1.02;;;13.30;56.30;;;;;;4984143;28;20031;-37
2021/03/21 04:33:54;;;;;;;1.85;1.20;;;13.30;56.10;;;;;;5000332;28;20050;-37
2021/03/21 04:36:25;;;;;;;1.95;1.23;;;13.30;56.30;;;;;;4960768;28;20113;-37
2021/03/21 04:39:08;;;;;;;1.33;1.08;;;13.30;56.30;;;;;;4983928;28;20038;-37
2021/03/21 04:42:06;;;;;;;1.10;1.00;;;13.30;56.60;;;;;;5029859;28;20034;-37
2021/03/21 04:44:59;;;;;;;1.43;1.20;;;13.30;56.40;;;;;;5062731;28;20024;-37
2021/03/21 04:47:27;;;;;;;1.60;1.27;;;13.20;56.40;;;;;;5054279;28;20562;-37
2021/03/21 04:49:57;;;;;;;1.30;1.02;;;13.20;56.40;;;;;;5085519;28;20029;-37
2021/03/21 04:52:58;;;;;;;1.20;1.10;;;13.20;56.50;;;;;;5034931;28;20025;-37
2021/03/21 04:55:46;;;;;;;2.13;1.33;;;13.20;56.40;;;;;;5069783;28;20048;-37
2021/03/21 04:58:42;;;;;;;1.63;1.23;;;13.20;56.60;;;;;;5027724;28;20104;-37
2021/03/21 05:01:18;;;;;;;1.33;1.10;;;13.20;56.60;;;;;;5015288;28;20034;-37
2021/03/21 05:03:56;;;;;;;1.73;1.10;;;13.20;56.70;;;;;;5060449;28;20043;-37
2021/03/21 05:06:32;;;;;;;1.60;1.20;;;13.20;56.60;;;;;;5085197;28;20024;-37
2021/03/21 05:09:01;;;;;;;1.08;0.98;;;13.20;56.70;;;;;;5048290;28;20041;-37
2021/03/21 05:11:39;;;;;;;0.90;0.90;;;13.10;56.60;;;;;;5027307;28;20081;-37
2021/03/21 05:14:10;;;;;;;1.30;1.10;;;13.10;56.50;;;;;;5021618;28;20615;-37
2021/03/21 05:16:43;;;;;;;1.52;1.02;;;13.10;56.60;;;;;;5051189;28;20031;-37
2021/03/21 05:19:35;;;;;;;1.45;1.00;;;13.10;56.70;;;;;;5051531;28;20039;-37
2021/03/21 05:22:44;;;;;;;1.20;0.95;;;13.10;56.70;;;;;;5069674;28;20098;-37
2021/03/21 05:25:33;;;;;;;1.60;1.00;;;13.10;56.70;;;;;;4983719;28;20034;-37
2021/03/21 05:28:22;;;;;;;1.98;1.10;;;13.10;56.70;;;;;;4949965;29;20137;-37
2021/03/21 05:30:47;;;;;;;;;;;13.10;56.80;;;;;;4948118;29;20027;-39
2021/03/21 05:33:14;;;;;;;1.70;1.25;;;13.10;56.60;;;;;;4964077;29;19911;-37
2021/03/21 05:35:40;;;;;;;1.77;1.15;;;13.10;56.70;;;;;;4943483;29;20046;-37
2021/03/21 05:38:15;;;;;;;1.77;1.42;;;13.10;56.90;;;;;;4928835;29;20048;-37
2021/03/21 05:41:15;;;;;;;1.40;1.15;;;13.10;56.90;;;;;;4944404;29;20146;-37
2021/03/21 05:44:02;;;;;;;2.65;1.10;;;13.00;56.90;;;;;;4944585;29;20103;-37
2021/03/21 05:46:43;;;;;;;1.20;1.10;;;13.00;57.00;;;;;;4944580;29;20119;-37
2021/03/21 05:49:18;;;;;;;1.40;1.17;;;13.00;56.90;;;;;;4944761;29;20031;-37
2021/03/21 05:51:58;;;;;;;2.28;1.40;;;13.00;57.00;;;;;;4943336;29;20028;-37
2021/03/21 05:54:54;;;;;;;1.73;1.30;;;13.00;57.00;;;;;;4944439;29;20040;-37
2021/03/21 05:57:35;;;;;;;2.53;1.13;;;13.00;56.90;;;;;;4958061;29;20034;-37
2021/03/21 06:00:39;;;;;;;2.15;1.20;;;13.00;57.00;;;;;;4984073;28;20046;-37
2021/03/21 06:03:05;;;;;;;1.08;0.90;;;13.00;57.00;;;;;;5062689;28;20052;-37
2021/03/21 06:06:02;;;;;;;1.23;0.95;;;13.00;57.00;;;;;;5064135;28;20028;-37
2021/03/21 06:08:44;;;;;;;1.65;1.15;;;13.00;57.00;;;;;;5046060;28;20047;-37
2021/03/21 06:11:19;;;;;;;1.55;1.10;;;13.00;57.00;;;;;;5031154;28;20136;-37
2021/03/21 06:14:43;;;;;;;1.40;1.05;;;13.00;57.10;;;;;;5047848;28;20075;-37
2021/03/21 06:17:19;;;;;;;1.40;0.93;;;13.00;57.20;;;;;;4982538;28;20038;-37
2021/03/21 06:20:00;;;;;;;1.90;1.00;;;12.90;57.10;;;;;;4982429;28;20023;-37
2021/03/21 06:22:48;;;;;;;1.85;1.17;;;13.00;57.10;;;;;;4974811;28;20034;-37
2021/03/21 06:25:37;;;;;;;1.47;1.37;;;12.90;57.20;;;;;;4982488;28;20159;-36
2021/03/21 06:28:41;;;;;;;2.00;1.27;;;12.90;57.20;;;;;;4949656;28;20050;-37
2021/03/21 06:31:27;;;;;;;2.42;1.20;;;12.90;57.20;;;;;;4966561;28;20094;-37
2021/03/21 06:33:59;;;;;;;2.10;1.30;;;12.90;57.30;;;;;;4956226;28;20030;-37
2021/03/21 06:36:37;;;;;;;1.40;1.30;;;12.90;57.30;;;;;;4964440;28;20054;-36
2021/03/21 06:39:21;;;;;;;;;;;12.90;57.20;;;;;;4947299;29;20769;-37
2021/03/21 06:41:56;;;;;;;1.45;0.90;;;12.90;57.30;;;;;;4962432;29;20353;-37
2021/03/21 06:44:30;;;;;;;1.55;1.20;;;12.90;57.30;;;;;;4969471;28;20044;-37
2021/03/21 06:47:05;;;;;;;1.80;1.10;;;12.90;57.30;;;;;;4965986;28;20039;-37
2021/03/21 06:49:56;;;;;;;1.80;1.38;;;12.90;57.40;;;;;;4982212;28;20042;-37
2021/03/21 06:52:43;;;;;;;1.70;1.10;;;12.90;57.30;;;;;;5065155;28;20035;-37
2021/03/21 06:55:28;;;;;;;2.72;1.45;;;12.90;57.40;;;;;;5065499;28;20020;-37
2021/03/21 06:58:05;;;;;;;1.00;0.90;;;12.90;57.40;;;;;;5048452;28;20017;-37
2021/03/21 07:00:58;;;;;;;1.52;1.27;;;12.90;57.40;;;;;;5063237;28;20037;-37
2021/03/21 07:03:47;;;;;;;1.05;0.95;;;12.90;57.40;;;;;;5042715;28;20080;-37
2021/03/21 07:06:50;;;;;;;1.30;1.20;;;12.90;57.30;;;;;;5025308;28;20022;-37
2021/03/21 07:09:29;;;;;;;2.20;1.25;;;12.90;57.30;;;;;;5064852;28;20142;-37
2021/03/21 07:12:13;;;;;;;;;;;12.80;57.50;;;;;;5063146;28;20052;-37
2021/03/21 07:14:54;;;;;;;1.40;0.90;;;12.80;57.50;;;;;;5072237;28;19942;-37
2021/03/21 07:17:48;;;;;;;2.05;1.35;;;12.80;57.50;;;;;;5083212;28;20055;-37
2021/03/21 07:20:45;;;;;;;1.30;1.20;;;12.80;57.70;;;;;;5083114;28;20051;-37
2021/03/21 07:23:30;;;;;;;1.50;1.30;;;12.80;57.80;;;;;;5082813;28;20115;-37
2021/03/21 07:26:15;;;;;;;1.58;1.38;;;12.80;57.70;;;;;;5080264;28;20048;-36
2021/03/21 07:29:07;;;;;;;2.13;1.35;;;12.80;57.70;;;;;;5062892;28;20052;-37
2021/03/21 07:31:52;;;;;;;2.78;1.42;;;12.80;57.80;;;;;;5041829;28;20057;-36
2021/03/21 07:34:34;;;;;;;1.45;1.08;;;12.80;57.80;;;;;;5025525;28;20026;-37
2021/03/21 07:37:09;;;;;;;1.55;1.30;;;12.80;57.80;;;;;;5047018;28;20025;-37
2021/03/21 07:39:54;;;;;;;2.75;1.25;;;12.80;57.90;;;;;;5042773;28;20033;-36
2021/03/21 07:42:30;;;;;;;1.20;1.08;;;12.80;57.90;;;;;;5042347;28;20117;-36
2021/03/21 07:45:19;;;;;;;1.52;1.17;;;12.80;57.70;;;;;;5048609;28;20060;-36
2021/03/21 07:47:54;;;;;;;1.35;1.20;;;12.80;57.90;;;;;;5064869;28;20045;-36
2021/03/21 07:50:45;;;;;;;1.10;1.00;;;12.80;58.10;;;;;;5064777;28;20032;-37
2021/03/21 07:53:40;;;;;;;1.48;1.10;;;12.80;57.90;;;;;;5082254;28;20028;-37
2021/03/21 07:56:14;;;;;;;1.73;1.10;;;12.80;57.90;;;;;;5078144;28;20043;-37
2021/03/21 07:58:57;;;;;;;1.70;1.20;;;12.80;57.90;;;;;;5044486;28;20097;-38
2021/03/21 08:01:23;;;;;;;1.42;1.30;;;12.80;57.90;;;;;;5058165;28;20026;-37
2021/03/21 08:04:07;;;;;;;1.42;1.13;;;12.80;58.00;;;;;;5024367;28;20017;-40
2021/03/21 08:06:49;;;;;;;1.45;1.00;;;12.80;57.90;;;;;;5024369;28;20030;-37
2021/03/21 08:09:25;;;;;;;2.38;1.30;;;12.80;57.90;;;;;;5010180;28;20037;-37
2021/03/21 08:11:58;;;;;;;3.00;1.00;;;12.80;57.90;;;;;;5024327;28;20040;-37
2021/03/21 08:14:30;;;;;;;1.40;1.00;;;12.80;57.90;;;;;;5032237;28;20028;-37
2021/03/21 08:16:58;;;;;;;1.92;1.10;;;12.80;58.00;;;;;;5044998;28;20053;-37
2021/03/21 08:19:29;;;;;;;1.55;1.02;;;12.80;58.00;;;;;;5046332;28;20017;-37
2021/03/21 08:21:55;;;;;;;1.02;0.90;;;12.80;58.20;;;;;;5047415;28;20029;-37
2021/03/21 08:24:24;;;;;;;1.42;1.00;;;12.70;58.00;;;;;;5047796;28;20031;-37
2021/03/21 08:26:50;;;;;;;1.98;1.30;;;12.70;58.10;;;;;;5048080;28;20033;-37
2021/03/21 08:29:26;;;;;;;1.00;0.90;;;12.80;58.20;;;;;;5048120;28;20090;-37
2021/03/21 08:32:07;;;;;;;1.15;0.93;;;12.80;58.10;;;;;;5040240;28;20053;-37
2021/03/21 08:34:43;;;;;;;1.33;1.10;;;12.70;58.00;;;;;;5049829;28;20025;-37
2021/03/21 08:37:28;;;;;;;2.90;1.67;;;12.70;58.20;;;;;;5045638;28;20029;-37
2021/03/21 08:39:56;;;;;;;1.30;1.00;;;12.70;58.20;;;;;;5065276;28;20029;-37
2021/03/21 08:42:38;;;;;;;3.88;1.35;;;12.70;58.20;;;;;;5065614;28;20055;-37
2021/03/21 08:45:07;;;;;;;2.28;1.10;;;12.70;58.20;;;;;;5054087;28;20117;-37
2021/03/21 08:47:33;;;;;;;2.55;1.50;;;12.70;57.90;;;;;;5044328;28;20037;-37
2021/03/21 08:50:00;;;;;;;2.13;1.02;;;12.70;58.20;;;;;;5047737;28;20036;-37
2021/03/21 08:52:28;;;;;;;1.17;1.00;;;12.70;58.40;;;;;;5031080;28;20029;-37
2021/03/21 08:54:54;;;;;;;;;;;12.70;58.40;;;;;;5047695;28;20036;-37
2021/03/21 08:57:34;;;;;;;1.58;1.02;;;12.70;58.90;;;;;;5051219;28;19912;-37
2021/03/21 09:00:18;;;;;;;1.40;1.02;;;12.70;58.30;;;;;;5064237;28;20057;-37
2021/03/21 09:02:44;;;;;;;1.55;1.13;;;12.70;58.30;;;;;;5065148;28;20044;-37
2021/03/21 09:05:12;;;;;;;1.80;0.90;;;12.70;58.30;;;;;;5065375;28;20025;-37
2021/03/21 09:07:43;;;;;;;2.45;1.17;;;12.70;58.30;;;;;;5064763;28;20041;-37
2021/03/21 09:10:12;;;;;;;1.63;1.17;;;12.70;58.40;;;;;;5065123;28;20025;-37
2021/03/21 09:12:46;;;;;;;1.75;1.00;;;12.70;58.40;;;;;;5046802;28;20057;-37
2021/03/21 09:15:31;;;;;;;1.67;1.20;;;12.70;58.30;;;;;;5073150;28;20080;-37
2021/03/21 09:18:00;;;;;;;1.90;1.10;;;12.70;58.50;;;;;;5085025;28;20039;-37
2021/03/21 09:20:26;;;;;;;2.45;1.23;;;12.70;58.40;;;;;;5085110;28;20055;-36
2021/03/21 09:22:53;;;;;;;1.30;1.20;;;12.60;58.20;;;;;;5084884;28;20063;-37
2021/03/21 09:25:33;;;;;;;2.25;1.33;;;12.70;58.20;;;;;;5067053;28;20048;-37
2021/03/21 09:27:59;;;;;;;2.28;0.98;;;12.70;58.30;;;;;;5065133;28;20080;-37
2021/03/21 09:30:42;;;;;;;1.35;0.98;;;12.70;58.50;;;;;;5064879;28;20021;-37
2021/03/21 09:33:20;;;;;;;1.52;0.90;;;12.70;58.50;;;;;;5028107;28;20060;-36
2021/03/21 09:36:07;;;;;;;1.75;1.23;;;12.70;58.50;;;;;;5011248;28;20056;-37
2021/03/21 09:38:34;;;;;;;1.73;1.20;;;12.70;58.60;;;;;;5013915;28;20101;-37
2021/03/21 09:41:02;;;;;;;;;;;12.70;58.60;;;;;;5021861;28;20106;-37
2021/03/21 09:43:37;;;;;;;1.42;1.10;;;12.70;58.70;;;;;;5046465;28;19915;-36
2021/03/21 09:46:38;;;;;;;2.15;1.00;;;12.60;58.50;;;;;;5044442;28;20057;-36
2021/03/21 09:49:06;;;;;;;1.55;1.00;;;12.70;58.70;;;;;;5030563;28;20061;-37
2021/03/21 09:51:53;;;;;;;1.90;1.30;;;12.60;58.60;;;;;;5044443;28;20037;-36
2021/03/21 09:54:35;;;;;;;1.40;1.00;;;12.70;58.80;;;;;;5026139;28;20042;-37
2021/03/21 09:57:36;;;;;;;1.45;1.10;;;12.60;58.80;;;;;;5055686;28;20457;-37
2021/03/21 10:00:29;;;;;;;1.70;1.13;;;12.60;59.30;;;;;;5046266;28;20033;-37
2021/03/21 10:03:07;;;;;;;1.65;1.20;;;12.60;59.00;;;;;;5046583;28;20033;-36
2021/03/21 10:06:08;;;;;;;2.85;1.02;;;12.60;58.90;;;;;;5026080;28;20034;-36
2021/03/21 10:08:59;;;;;;;1.77;1.10;;;12.60;58.90;;;;;;5039507;28;20029;-36
2021/03/21 10:11:28;;;;;;;2.15;1.02;;;12.60;58.90;;;;;;5043974;28;20025;-36
2021/03/21 10:13:55;;;;;;;1.50;1.25;;;12.60;58.80;;;;;;4996523;28;20567;-37
2021/03/21 10:16:27;;;;;;;1.83;1.02;;;12.60;58.90;;;;;;5063849;28;20058;-38
2021/03/21 10:19:06;;;;;;;1.63;1.10;;;12.60;58.90;;;;;;5064071;28;20129;-36
2021/03/21 10:21:37;;;;;;;1.83;1.20;;;12.60;59.00;;;;;;5063797;28;20497;-37
2021/03/21 10:24:08;;;;;;;2.03;1.10;;;12.60;59.00;;;;;;5063279;28;20474;-37
2021/03/21 10:26:34;;;;;;;1.55;1.10;;;12.60;58.90;;;;;;5060944;28;20025;-37
2021/03/21 10:29:02;;;;;;;1.20;1.10;;;12.60;58.90;;;;;;5060146;28;20055;-36
2021/03/21 10:31:30;;;;;;;1.40;1.10;;;12.60;59.10;;;;;;5058676;28;20130;-36
2021/03/21 10:34:16;;;;;;;3.25;1.15;;;12.60;58.90;;;;;;5043534;28;20033;-37
2021/03/21 10:36:44;;;;;;;1.75;1.00;;;12.60;59.10;;;;;;5039712;28;20113;-36
2021/03/21 10:39:12;;;;;;;1.13;0.95;;;12.60;59.00;;;;;;5024658;28;20025;-36
2021/03/21 10:41:50;;;;;;;;;;;12.60;59.00;;;;;;5023927;28;20030;-37
2021/03/21 10:44:17;;;;;;;1.43;1.07;;;12.60;59.00;;;;;;5036908;28;19909;-37
2021/03/21 10:46:51;;;;;;;2.50;0.98;;;12.60;59.20;;;;;;5043194;28;20282;-37
2021/03/21 10:49:52;;;;;;;2.13;1.15;;;12.60;59.20;;;;;;5043370;28;20215;-42
2021/03/21 10:52:30;;;;;;;2.40;1.10;;;12.50;59.20;;;;;;5025093;28;20025;-37
2021/03/21 10:55:21;;;;;;;2.05;1.02;;;12.60;59.20;;;;;;5042928;28;20031;-36
2021/03/21 10:57:59;;;;;;;1.90;1.00;;;12.50;59.10;;;;;;5044770;28;20033;-37
2021/03/21 11:00:30;;;;;;;;;;;12.60;59.30;;;;;;5025949;28;20068;-37
2021/03/21 11:02:59;;;;;;;1.95;0.90;;;12.50;59.40;;;;;;5038532;28;19915;-37
2021/03/21 11:05:33;;;;;;;1.33;0.93;;;12.50;59.20;;;;;;5062694;28;20021;-37
2021/03/21 11:08:15;;;;;;;3.80;1.00;;;12.50;59.20;;;;;;5062591;28;20040;-37
2021/03/21 11:10:52;;;;;;;1.05;0.85;;;12.50;59.20;;;;;;5062862;28;20025;-38
2021/03/21 11:13:35;;;;;;;1.20;0.97;;;12.50;59.30;;;;;;5077792;28;20053;-37
2021/03/21 11:16:15;;;;;;;1.63;1.02;;;12.50;59.20;;;;;;5074544;28;20044;-37
2021/03/21 11:18:41;;;;;;;1.85;1.05;;;12.50;59.20;;;;;;5062747;28;20029;-36
2021/03/21 11:21:08;;;;;;;3.60;1.02;;;12.50;59.30;;;;;;5044663;28;20064;-37
2021/03/21 11:23:46;;;;;;;1.48;0.90;;;12.50;59.30;;;;;;5062395;28;20025;-37
2021/03/21 11:26:25;;;;;;;1.35;0.90;;;12.50;59.30;;;;;;5047978;28;20024;-37
2021/03/21 11:29:12;;;;;;;2.28;1.17;;;12.50;59.30;;;;;;5082773;28;20040;-36
2021/03/21 11:31:43;;;;;;;3.70;1.30;;;12.50;59.90;;;;;;5075908;28;20033;-36
2021/03/21 11:34:22;;;;;;;1.00;0.88;;;12.50;59.40;;;;;;5044353;28;20074;-37
2021/03/21 11:37:03;;;;;;;1.58;1.00;;;12.50;59.30;;;;;;5056336;28;20044;-36
2021/03/21 11:39:35;;;;;;;3.33;1.20;;;12.50;59.40;;;;;;5062201;28;20025;-37
2021/03/21 11:42:09;;;;;;;2.30;1.10;;;12.50;59.30;;;;;;5062239;28;20037;-36
2021/03/21 11:44:35;;;;;;;1.45;1.10;;;12.50;59.30;;;;;;5062319;28;20064;-37
2021/03/21 11:47:13;;;;;;;1.65;1.05;;;12.50;59.20;;;;;;5062114;28;20063;-37
2021/03/21 11:49:39;;;;;;;;;;;12.50;59.20;;;;;;5061835;28;20032;-36
2021/03/21 11:52:06;;;;;;;2.15;0.93;;;12.50;59.20;;;;;;5062215;28;19979;-37
2021/03/21 11:54:33;;;;;;;2.33;1.07;;;12.50;59.40;;;;;;5044377;28;20037;-36
2021/03/21 11:57:08;;;;;;;1.23;0.93;;;12.50;59.40;;;;;;5045789;28;20262;-37
2021/03/21 11:59:52;;;;;;;1.90;1.00;;;12.50;59.30;;;;;;5062286;28;20029;-36
2021/03/21 12:03:03;;;;;;;1.75;1.08;;;12.50;59.20;;;;;;5017964;28;20052;-36
2021/03/21 12:05:34;;;;;;;1.20;0.90;;;12.50;59.20;;;;;;4980568;28;20035;-37
2021/03/21 12:08:08;;;;;;;1.45;0.98;;;12.50;59.20;;;;;;4980518;28;20053;-37
2021/03/21 12:10:37;;;;;;;2.47;0.90;;;12.40;59.30;;;;;;4980511;28;20106;-36
2021/03/21 12:13:30;;;;;;;1.08;0.80;;;12.50;59.30;;;;;;4980315;28;20047;-37
2021/03/21 12:15:56;;;;;;;1.35;0.98;;;12.50;59.20;;;;;;4980503;28;20046;-36
2021/03/21 12:18:24;;;;;;;3.75;1.05;;;12.50;59.30;;;;;;4980736;28;20030;-37
2021/03/21 12:21:12;;;;;;;1.77;1.00;;;12.50;59.30;;;;;;4980686;28;20035;-37
2021/03/21 12:23:54;;;;;;;2.05;1.00;;;12.50;59.20;;;;;;4980607;28;20055;-36
2021/03/21 12:26:26;;;;;;;1.77;1.00;;;12.40;59.30;;;;;;4986078;28;20149;-37
2021/03/21 12:29:23;;;;;;;1.35;1.02;;;12.40;59.20;;;;;;4981052;28;20034;-36
2021/03/21 12:31:51;;;;;;;1.23;0.98;;;12.40;59.30;;;;;;4998125;28;20031;-37
2021/03/21 12:34:45;;;;;;;1.10;1.00;;;12.50;59.40;;;;;;4999909;28;20063;-37
2021/03/21 12:37:13;;;;;;;1.27;0.90;;;12.40;59.20;;;;;;4999648;28;20037;-36
2021/03/21 12:39:40;;;;;;;1.50;1.20;;;12.40;59.50;;;;;;5032646;28;20033;-36
2021/03/21 12:42:28;;;;;;;1.35;1.00;;;12.40;59.40;;;;;;5061565;28;20031;-36
2021/03/21 12:45:27;;;;;;;1.10;0.68;;;12.40;59.40;;;;;;5061826;28;20033;-37
2021/03/21 12:47:53;;;;;;;1.50;1.10;;;12.40;59.30;;;;;;4979987;28;20801;-36
2021/03/21 12:50:36;;;;;;;2.35;1.00;;;12.40;59.20;;;;;;4980822;28;20026;-38
2021/03/21 12:53:19;;;;;;;1.17;0.93;;;12.40;59.10;;;;;;4999857;28;20971;-37
2021/03/21 12:55:46;;;;;;;3.30;1.17;;;12.40;59.20;;;;;;4971454;28;20038;-37
2021/03/21 12:58:12;;;;;;;1.70;1.10;;;12.40;59.20;;;;;;4963745;28;20129;-37
2021/03/21 13:00:38;;;;;;;1.48;0.80;;;12.50;59.30;;;;;;4980571;28;20585;-37
2021/03/21 13:03:06;;;;;;;1.60;1.10;;;12.40;59.50;;;;;;4983690;28;20035;-37
2021/03/21 13:05:40;;;;;;;2.30;1.02;;;12.40;59.80;;;;;;4983705;28;20118;-37
2021/03/21 13:08:07;;;;;;;2.15;1.13;;;12.40;60.00;;;;;;4982895;28;20121;-37
2021/03/21 13:10:33;;;;;;;0.82;0.80;;;12.40;59.70;;;;;;4983586;28;20061;-37
2021/03/21 13:13:00;;;;;;;2.50;0.93;;;12.40;59.50;;;;;;4983490;28;20133;-38
2021/03/21 13:15:27;;;;;;;1.30;0.88;;;12.40;59.60;;;;;;4983504;28;20038;-37
2021/03/21 13:17:53;;;;;;;2.25;0.80;;;12.50;59.30;;;;;;4983182;28;20042;-37
2021/03/21 13:20:20;;;;;;;1.73;1.20;;;12.40;59.60;;;;;;4967312;28;20038;-37
2021/03/21 13:22:46;;;;;;;1.00;0.80;;;12.40;59.40;;;;;;5000032;28;20033;-38
2021/03/21 13:25:24;;;;;;;2.85;1.00;;;12.40;60.00;;;;;;5064625;28;20043;-37
2021/03/21 13:27:57;;;;;;;1.52;1.00;;;12.50;59.20;;;;;;5078858;28;20075;-38
2021/03/21 13:30:27;;;;;;;2.30;0.85;;;12.50;59.30;;;;;;5084797;28;20033;-38
2021/03/21 13:32:54;;;;;;;0.98;0.77;;;12.40;59.20;;;;;;5068079;28;20075;-37
2021/03/21 13:35:23;;;;;;;1.27;1.05;;;12.50;59.10;;;;;;5058583;28;20795;-37
2021/03/21 13:37:50;;;;;;;1.25;0.90;;;12.50;59.10;;;;;;5064100;28;20032;-37